createdAt,value
2023-02-12T00:00:45.001Z,3.72
2023-02-12T00:06:08.484Z,5.20
2023-02-12T00:11:30.368Z,3.83
2023-02-12T00:16:52.197Z,4.20
2023-02-12T00:22:14.068Z,2.90
2023-02-12T00:27:36.156Z,3.30
2023-02-12T00:32:58.024Z,5.10
2023-02-12T00:38:19.906Z,4.85
2023-02-12T00:43:41.986Z,2.78
2023-02-12T00:49:03.898Z,3.90
2023-02-12T00:54:25.741Z,2.45
2023-02-12T00:59:47.598Z,2.53
2023-02-12T01:05:09.592Z,2.05
2023-02-12T01:10:31.984Z,2.03
2023-02-12T01:16:07.059Z,3.78
2023-02-12T01:21:31.821Z,1.35
2023-02-12T01:26:53.648Z,4.57
2023-02-12T01:32:15.535Z,3.63
2023-02-12T01:37:38.642Z,2.45
2023-02-12T01:43:02.030Z,2.25
2023-02-12T01:48:27.230Z,3.95
2023-02-12T01:53:53.548Z,2.72
2023-02-12T01:59:16.964Z,2.55
2023-02-12T02:04:43.961Z,2.67
2023-02-12T02:10:06.694Z,2.92
2023-02-12T02:15:31.061Z,4.35
2023-02-12T02:21:13.049Z,2.78
2023-02-12T02:26:43.677Z,2.50
2023-02-12T02:32:15.310Z,2.28
2023-02-12T02:37:45.678Z,2.33
2023-02-12T02:43:15.366Z,1.50
2023-02-12T02:48:43.881Z,1.88
2023-02-12T02:54:13.494Z,2.42
2023-02-12T02:59:43.324Z,2.17
2023-02-12T03:05:19.711Z,2.42
2023-02-12T03:16:12.870Z,2.08
2023-02-12T03:21:44.667Z,1.75
2023-02-12T03:27:11.726Z,2.33
2023-02-12T03:33:01.344Z,2.42
2023-02-12T03:38:41.469Z,2.17
2023-02-12T03:44:16.209Z,2.25
2023-02-12T03:50:12.047Z,2.85
2023-02-12T03:55:40.420Z,5.80
2023-02-12T04:01:03.981Z,2.72
2023-02-12T04:06:29.009Z,2.33
2023-02-12T04:12:07.225Z,1.63
2023-02-12T04:17:56.855Z,3.03
2023-02-12T04:23:33.877Z,2.00
2023-02-12T04:29:11.309Z,2.00
2023-02-12T04:34:39.933Z,3.92
2023-02-12T04:40:06.235Z,2.30
2023-02-12T04:45:31.003Z,1.15
2023-02-12T04:50:52.864Z,1.25
2023-02-12T04:56:15.263Z,2.45
2023-02-12T05:01:38.769Z,5.05
2023-02-12T05:07:00.690Z,1.90
2023-02-12T05:12:22.590Z,1.80
2023-02-12T05:17:44.461Z,2.00
2023-02-12T05:23:06.307Z,2.00
2023-02-12T05:28:29.080Z,1.52
2023-02-12T05:33:51.193Z,2.25
2023-02-12T05:39:13.022Z,2.22
2023-02-12T05:44:34.893Z,2.55
2023-02-12T05:49:56.754Z,2.55
2023-02-12T05:55:18.718Z,3.08
2023-02-12T06:00:40.754Z,2.15
2023-02-12T06:06:02.600Z,3.42
2023-02-12T06:11:24.919Z,1.60
2023-02-12T06:16:48.853Z,3.33
2023-02-12T06:22:10.722Z,4.07
2023-02-12T06:27:32.550Z,2.50
2023-02-12T06:32:54.451Z,3.65
2023-02-12T06:38:16.489Z,1.63
2023-02-12T06:43:38.417Z,4.05
2023-02-12T06:49:01.014Z,2.90
2023-02-12T06:54:22.872Z,4.63
2023-02-12T06:59:44.714Z,2.60
2023-02-12T07:05:06.658Z,2.40
2023-02-12T07:10:28.494Z,2.42
2023-02-12T07:15:50.464Z,1.58
2023-02-12T07:21:14.377Z,1.92
2023-02-12T07:26:36.234Z,1.85
2023-02-12T07:31:58.165Z,1.58
2023-02-12T07:37:20.095Z,2.28
2023-02-12T07:42:41.960Z,2.65
2023-02-12T07:48:03.984Z,2.83
2023-02-12T07:53:25.872Z,1.90
2023-02-12T07:58:50.096Z,2.22
2023-02-12T08:04:14.643Z,2.05
2023-02-12T08:09:36.525Z,1.58
2023-02-12T08:14:58.362Z,1.27
2023-02-12T08:20:20.199Z,2.70
2023-02-12T08:25:42.056Z,1.50
2023-02-12T08:31:06.916Z,2.15
2023-02-12T08:36:38.229Z,1.98
2023-02-12T08:42:00.565Z,2.20
2023-02-12T08:47:22.486Z,6.25
2023-02-12T08:52:44.315Z,2.65
2023-02-12T08:58:06.214Z,2.03
2023-02-12T09:03:28.376Z,2.50
2023-02-12T09:08:51.560Z,2.13
2023-02-12T09:14:15.524Z,2.17
2023-02-12T09:19:37.381Z,2.50
2023-02-12T09:24:59.239Z,2.53
2023-02-12T09:30:21.315Z,3.20
2023-02-12T09:35:43.357Z,2.97
2023-02-12T09:41:20.360Z,3.20
2023-02-12T09:47:12.515Z,3.67
2023-02-12T09:52:35.555Z,3.90
2023-02-12T09:57:57.765Z,5.07
2023-02-12T10:03:19.624Z,4.32
2023-02-12T10:08:53.720Z,3.63
2023-02-12T10:14:52.969Z,4.45
2023-02-12T10:20:31.652Z,4.00
2023-02-12T10:25:59.878Z,4.45
2023-02-12T10:31:34.229Z,3.88
2023-02-12T10:37:10.373Z,10.82
2023-02-12T10:42:36.762Z,4.72
2023-02-12T10:48:10.200Z,5.28
2023-02-12T10:53:34.616Z,4.93
2023-02-12T10:58:59.656Z,8.68
2023-02-12T11:04:28.319Z,4.78
2023-02-12T11:09:52.547Z,4.43
2023-02-12T11:15:17.694Z,6.10
2023-02-12T11:20:51.048Z,5.80
2023-02-12T11:26:18.640Z,4.82
2023-02-12T11:31:40.863Z,6.13
2023-02-12T11:37:03.452Z,4.40
2023-02-12T11:42:26.617Z,4.18
2023-02-12T11:47:51.137Z,5.30
2023-02-12T11:53:22.406Z,7.90
2023-02-12T11:58:46.572Z,5.20
2023-02-12T12:04:16.399Z,6.70
2023-02-12T12:09:49.693Z,6.38
2023-02-12T12:15:25.126Z,4.78
2023-02-12T12:20:56.531Z,6.22
2023-02-12T12:26:25.724Z,10.63
2023-02-12T12:31:57.825Z,6.32
2023-02-12T12:37:31.101Z,5.25
2023-02-12T12:43:22.104Z,7.35
2023-02-12T12:48:55.237Z,7.07
2023-02-12T12:54:48.121Z,7.15
2023-02-12T13:00:24.280Z,6.20
2023-02-12T13:06:06.449Z,5.45
2023-02-12T13:12:05.640Z,8.05
2023-02-12T13:17:42.742Z,6.53
2023-02-12T13:23:13.508Z,4.70
2023-02-12T13:28:42.292Z,5.78
2023-02-12T13:34:07.860Z,7.10
2023-02-12T13:39:34.812Z,8.68
2023-02-12T13:45:24.249Z,9.43
2023-02-12T13:51:24.240Z,7.90
2023-02-12T13:56:53.803Z,8.73
2023-02-12T14:02:18.683Z,7.72
2023-02-12T14:08:05.212Z,8.07
2023-02-12T14:13:27.153Z,8.05
2023-02-12T14:18:48.996Z,9.77
2023-02-12T14:24:35.974Z,6.55
2023-02-12T14:30:03.808Z,8.60
2023-02-12T14:35:49.137Z,8.40
2023-02-12T14:41:37.279Z,9.77
2023-02-12T14:47:01.555Z,9.52
2023-02-12T14:52:27.340Z,10.05
2023-02-12T14:57:50.051Z,8.83
2023-02-12T15:03:14.583Z,9.43
2023-02-12T15:09:03.095Z,10.95
2023-02-12T15:14:30.904Z,8.90
2023-02-12T15:20:07.687Z,8.25
2023-02-12T15:25:33.422Z,9.25
2023-02-12T15:30:56.959Z,9.13
2023-02-12T15:36:22.548Z,11.07
2023-02-12T15:41:44.479Z,9.27
2023-02-12T15:47:14.888Z,11.27
2023-02-12T15:52:39.640Z,11.55
2023-02-12T15:58:02.122Z,12.95
2023-02-12T16:03:38.279Z,14.15
2023-02-12T16:09:29.826Z,16.27
2023-02-12T16:14:54.498Z,13.63
2023-02-12T16:20:16.364Z,11.88
2023-02-12T16:25:38.340Z,11.60
2023-02-12T16:31:10.128Z,14.35
2023-02-12T16:36:32.464Z,14.00
2023-02-12T16:41:57.188Z,11.32
2023-02-12T16:47:24.686Z,13.70
2023-02-12T16:52:46.577Z,12.10
2023-02-12T16:58:09.026Z,13.75
2023-02-12T17:03:31.529Z,16.38
2023-02-12T17:08:53.634Z,23.17
2023-02-12T17:14:18.325Z,16.20
2023-02-12T17:19:40.464Z,16.35
2023-02-12T17:25:02.357Z,16.38
2023-02-12T17:30:24.473Z,14.90
2023-02-12T17:35:47.211Z,18.52
2023-02-12T17:41:11.015Z,13.90
2023-02-12T17:46:33.247Z,15.80
2023-02-12T17:51:55.151Z,15.38
2023-02-12T17:57:17.370Z,15.27
2023-02-12T18:02:39.580Z,15.23
2023-02-12T18:08:01.917Z,14.27
2023-02-12T18:13:24.666Z,18.27
2023-02-12T18:18:46.621Z,17.98
2023-02-12T18:24:08.885Z,13.15
2023-02-12T18:29:31.055Z,19.08
2023-02-12T18:34:53.037Z,24.80
2023-02-12T18:40:15.724Z,19.15
2023-02-12T18:45:39.878Z,17.52
2023-02-12T18:51:03.337Z,17.13
2023-02-12T18:56:25.204Z,17.80
2023-02-12T19:01:47.653Z,19.25
2023-02-12T19:07:09.653Z,19.98
2023-02-12T19:12:33.450Z,20.95
2023-02-12T19:18:01.820Z,23.08
2023-02-12T19:23:24.095Z,21.55
2023-02-12T19:28:46.576Z,31.17
2023-02-12T19:34:13.474Z,25.60
2023-02-12T19:39:35.448Z,22.88
2023-02-12T19:44:57.299Z,23.20
2023-02-12T19:50:19.294Z,22.13
2023-02-12T19:55:41.652Z,23.88
2023-02-12T20:01:15.407Z,25.05
2023-02-12T20:06:38.627Z,21.63
2023-02-12T20:12:00.740Z,23.45
2023-02-12T20:17:23.102Z,24.50
2023-02-12T20:22:45.164Z,19.65
2023-02-12T20:28:07.147Z,19.25
2023-02-12T20:33:29.077Z,21.17
2023-02-12T20:38:54.016Z,18.17
2023-02-12T20:44:18.956Z,21.13
2023-02-12T20:49:40.942Z,18.10
2023-02-12T20:55:03.087Z,17.77
2023-02-12T21:00:25.061Z,19.20
2023-02-12T21:05:47.022Z,20.23
2023-02-12T21:11:14.868Z,20.88
2023-02-12T21:16:39.271Z,20.33
2023-02-12T21:22:01.157Z,20.25
2023-02-12T21:27:23.201Z,24.08
2023-02-12T21:32:45.057Z,21.10
2023-02-12T21:38:06.959Z,24.05
2023-02-12T21:43:29.113Z,26.98
2023-02-12T21:48:51.302Z,28.05
2023-02-12T21:54:15.375Z,25.02
2023-02-12T21:59:37.270Z,28.88
2023-02-12T22:04:59.111Z,25.73
2023-02-12T22:10:21.000Z,26.17
2023-02-12T22:15:42.891Z,25.00
2023-02-12T22:21:06.578Z,24.05
2023-02-12T22:26:30.330Z,27.45
2023-02-12T22:31:52.372Z,30.65
2023-02-12T22:37:14.292Z,30.05
2023-02-12T22:42:36.569Z,29.85
2023-02-12T22:47:58.496Z,30.83
2023-02-12T22:53:21.039Z,33.78
2023-02-12T22:58:42.876Z,30.63
2023-02-12T23:04:04.895Z,32.90
2023-02-12T23:09:26.935Z,32.75
2023-02-12T23:14:48.793Z,37.13
2023-02-12T23:20:13.924Z,34.83
2023-02-12T23:25:35.839Z,35.03
2023-02-12T23:30:58.596Z,31.83
2023-02-12T23:36:20.873Z,30.38
2023-02-12T23:41:42.781Z,32.67
2023-02-12T23:47:05.257Z,30.88
2023-02-12T23:52:27.198Z,32.75
2023-02-12T23:57:49.298Z,31.55
